Bei Facebook empfehlenBei Twitter postenGoogle plusPinterest

Das Wetter im Erzgebirge am 13.09.2017

Wetter und Klima am 13.09.2017 Holzhau im Erzgebirge (630m ü.NN)
Letzte gemessene Temperatur und Uhrzeit der Messung23:45:00 Uhr10.50 °C
Temperatur (Maximum / Höchstwert) und Uhrzeit der Messung14:00:00 Uhr15.60 °C
Temperatur (Minimum / Tiefstwert) und Uhrzeit der Messung00:45:005.30 °C
Errechneter Absolutwert der Temperaturschwankungen zwischen Tmin und Tmax des Tages10.30 K
Errechnete Tagesmitteltemperatur10.46042 °C
Gesamt - Niederschlag des Tages (in flüssiger Form)0.51 Liter / m²
Luftdruck (Maximum / Höchstwert) und Zeitpunkt der Messung02:30:00 Uhr1008.70 hPa
Luftdruck (Minimum / Tiefstwert) und Zeitpunkt der Messung21:00:00 Uhr1001.70 hPa
Errechneter Absolutwert der Luftdruckschwankungen des Tages7.00 hPa
Höchste gemessene Windgeschwindigkeit und Uhrzeit der Messung11:30:00 Uhr59.76 km/h
Errechnete Windhäufigkeit in Relation zu den Messwerten des Tages28.12500 %
Niedrigste Windkühle (Windchill) und Zeitpunkt der Messung06:45:00 Uhr5.10 °C
Taupunkt (Maximum / Höchstwert) und Uhrzeit der Messung17:15:00 Uhr10.70 °C
Taupunkt (Minimum / Tiefstwert) und Uhrzeit der Messung00:45:004.00 °C
Anzahl der automatisch eingelesenen Messwerte 96

Detaillierte Wetter- und Klima- Messwerte für den 13.09.2017 in Holzhau im Erzgebirge (630m ü.NN)
ZeitTemperaturLuftdruckRel. LuftfeuchteWindWindrichtungWindchillTaupunktNiederschlag l/m²
23:45:0010.50 °C1002.20 hPa88.00 %8.60 °C0.51
23:30:0010.60 °C1002.00 hPa87.00 %8.50 °C0.51
23:15:0010.60 °C1002.40 hPa88.00 %20.88 km/hSSW10.20 °C8.70 °C0.51
23:00:0010.90 °C1001.80 hPa87.00 %12.96 km/hWNW10.90 °C8.80 °C0.51
22:45:0011.20 °C1001.90 hPa86.00 %8.90 °C0.51
22:30:0011.40 °C1002.50 hPa86.00 %9.10 °C0.51
22:15:0011.80 °C1002.30 hPa84.00 %9.20 °C0.51
22:00:0012.30 °C1002.30 hPa83.00 %25.92 km/hSW11.90 °C9.50 °C0.51
21:45:0012.30 °C1002.40 hPa83.00 %9.50 °C0.51
21:30:0012.10 °C1001.90 hPa83.00 %9.30 °C0.51
21:15:0012.20 °C1001.90 hPa82.00 %9.20 °C0.51
21:00:0012.40 °C1001.70 hPa81.00 %9.20 °C0.51
20:45:0012.40 °C1001.90 hPa81.00 %9.20 °C0.51
20:30:0012.20 °C1002.00 hPa80.00 %8.90 °C0.51
20:15:0012.10 °C1001.70 hPa80.00 %8.80 °C0.51
20:00:0011.90 °C1001.90 hPa78.00 %8.20 °C0.51
19:45:0012.20 °C1001.90 hPa77.00 %8.30 °C0.51
19:30:0012.80 °C1002.00 hPa75.00 %8.50 °C0.51
19:15:0013.20 °C1002.20 hPa74.00 %8.70 °C0.51
19:00:0013.50 °C1002.20 hPa74.00 %10.44 km/hWSW13.50 °C9.00 °C0.51
18:45:0013.70 °C1002.20 hPa74.00 %9.20 °C0.51
18:30:0013.80 °C1002.10 hPa73.00 %27.36 km/hS13.50 °C9.00 °C0.51
18:15:0013.90 °C1002.30 hPa74.00 %9.30 °C0.51
18:00:0014.10 °C1002.30 hPa75.00 %42.84 km/hSW13.30 °C9.70 °C0.51
17:45:0014.20 °C1002.30 hPa77.00 %10.20 °C0.51
17:30:0013.90 °C1001.90 hPa80.00 %37.44 km/hSSW13.20 °C10.50 °C0.51
17:15:0013.20 °C1002.00 hPa85.00 %10.70 °C0.51
17:00:0012.90 °C1001.80 hPa86.00 %3.96 km/hW12.90 °C10.60 °C0.51
16:45:0012.40 °C1001.80 hPa86.00 %10.10 °C0.51
16:30:0012.40 °C1001.80 hPa85.00 %10.00 °C0.51
16:15:0012.60 °C1002.20 hPa83.00 %9.80 °C0.51
16:00:0012.80 °C1002.00 hPa81.00 %9.60 °C0.51
15:45:0013.40 °C1001.90 hPa78.00 %9.60 °C0.51
15:30:0013.60 °C1002.00 hPa77.00 %9.60 °C0.51
15:15:0014.10 °C1002.30 hPa75.00 %5.04 km/hWSW14.10 °C9.70 °C0.51
15:00:0014.50 °C1002.20 hPa74.00 %9.90 °C0.51
14:45:0014.50 °C1002.20 hPa74.00 %9.90 °C0.51
14:30:0014.50 °C1002.40 hPa74.00 %9.90 °C0.51
14:15:0015.30 °C1002.40 hPa71.00 %10.10 °C0.51
14:00:0015.60 °C1002.50 hPa71.00 %10.40 °C0.51
13:45:0015.30 °C1002.40 hPa72.00 %28.44 km/hN15.20 °C10.30 °C0.51
13:30:0015.10 °C1002.50 hPa73.00 %28.44 km/hSSW15.00 °C10.30 °C0.51
13:15:0014.80 °C1002.50 hPa75.00 %55.80 km/hSW13.80 °C10.40 °C0.51
13:00:0014.90 °C1002.80 hPa75.00 %12.96 km/hWSW14.90 °C10.50 °C0.51
12:45:0014.20 °C1002.40 hPa79.00 %12.96 km/hN14.20 °C10.60 °C0.51
12:30:0013.40 °C1002.60 hPa81.00 %16.92 km/hW13.40 °C10.20 °C0.51
12:15:0012.10 °C1002.80 hPa85.00 %9.70 °C0.51
12:00:0011.30 °C1003.10 hPa87.00 %14.40 km/hSW11.30 °C9.20 °C0.51
11:45:0010.60 °C1003.20 hPa87.00 %16.92 km/hSO10.60 °C8.50 °C0.51
11:30:0010.20 °C1003.20 hPa88.00 %59.76 km/hSSW8.00 °C8.30 °C0.51
11:15:0010.40 °C1003.40 hPa87.00 %8.30 °C 
11:00:0010.70 °C1003.50 hPa86.00 %8.50 °C 
10:45:0010.80 °C1003.50 hPa86.00 %8.60 °C 
10:30:0010.70 °C1003.60 hPa87.00 %21.96 km/hSW10.20 °C8.60 °C 
10:15:0010.10 °C1003.70 hPa86.00 %3.96 km/hSW10.10 °C7.90 °C 
10:00:0010.20 °C1003.70 hPa86.00 %15.48 km/hSW10.20 °C8.00 °C 
09:45:009.80 °C1004.10 hPa86.00 %7.60 °C 
09:30:009.90 °C1004.20 hPa86.00 %7.70 °C 
09:15:009.90 °C1004.50 hPa86.00 %7.70 °C 
09:00:009.90 °C1005.10 hPa86.00 %7.70 °C 
08:45:009.90 °C1005.30 hPa87.00 %34.92 km/hOSO8.60 °C7.80 °C 
08:30:009.60 °C1005.70 hPa87.00 %14.40 km/hSO9.60 °C7.50 °C 
08:15:009.50 °C1005.70 hPa88.00 %7.60 °C 
08:00:008.90 °C1006.00 hPa90.00 %7.40 °C 
07:45:008.20 °C1006.20 hPa91.00 %6.80 °C 
07:30:007.80 °C1006.30 hPa91.00 %6.40 °C 
07:15:007.80 °C1006.40 hPa92.00 %6.60 °C 
07:00:007.40 °C1006.60 hPa92.00 %6.20 °C 
06:45:007.20 °C1006.60 hPa92.00 %38.88 km/hSW5.10 °C6.00 °C 
06:30:007.00 °C1006.60 hPa92.00 %5.80 °C 
06:15:006.40 °C1006.70 hPa92.00 %5.20 °C 
06:00:006.40 °C1006.70 hPa90.00 %4.90 °C 
05:45:006.90 °C1006.80 hPa90.00 %5.40 °C 
05:30:007.50 °C1007.10 hPa91.00 %6.10 °C 
05:15:007.50 °C1007.20 hPa92.00 %7.92 km/hSW7.50 °C6.30 °C 
05:00:007.30 °C1007.10 hPa92.00 %6.10 °C 
04:45:007.10 °C1007.50 hPa92.00 %5.90 °C 
04:30:006.90 °C1007.60 hPa91.00 %5.50 °C 
04:15:007.00 °C1007.70 hPa91.00 %5.60 °C 
04:00:007.10 °C1007.90 hPa91.00 %6.48 km/hSW7.10 °C5.70 °C 
03:45:007.30 °C1008.00 hPa91.00 %5.90 °C 
03:30:007.20 °C1008.10 hPa92.00 %6.00 °C 
03:15:006.90 °C1008.50 hPa91.00 %5.50 °C 
03:00:007.10 °C1008.30 hPa92.00 %5.90 °C 
02:45:007.10 °C1008.50 hPa92.00 %5.90 °C 
02:30:006.90 °C1008.70 hPa92.00 %5.70 °C 
02:15:006.80 °C1008.60 hPa92.00 %5.60 °C 
02:00:006.80 °C1008.70 hPa92.00 %5.60 °C 
01:45:006.80 °C1008.70 hPa93.00 %5.70 °C 
01:30:006.40 °C1008.60 hPa93.00 %9.00 km/hW6.40 °C5.40 °C 
01:15:006.10 °C1008.70 hPa92.00 %4.90 °C 
01:00:005.60 °C1008.70 hPa92.00 %4.40 °C 
00:45:005.30 °C1008.70 hPa91.00 %4.00 °C 
00:30:005.40 °C1008.60 hPa91.00 %4.10 °C 
00:15:005.40 °C1008.60 hPa91.00 %4.10 °C 
00:00:005.40 °C1008.60 hPa91.00 %4.10 °C 

Permanenter Link zu dieser Seite: Wetter im Erzgebirge am 13.09.2017
Performance-Info: Die Erstellung der Seite / Statistik(en) / Tabelle(n) erforderte 5 Datenbankserver-Abfrage(n) und dauerte 123 Millisekunden. (Dieser Messwert ist von der Gesamt-Auslastung des Servers abhängig.)
Erzgebirge - Wetter | Erzgebirge - Wetter (Mobilgeräte) | Komplette Klimadatenbank